sensor_id;sensor_type;location;lat;lon;timestamp;pressure;altitude;pressure_sealevel;temperature;humidity
11099;BME280;12223;42.650;23.364;2023-11-25T00:01:27;92511.84;;;15.75;65.95
11099;BME280;12223;42.650;23.364;2023-11-25T00:03:54;92523.13;;;16.03;64.36
11099;BME280;12223;42.650;23.364;2023-11-25T00:06:21;92507.53;;;16.27;62.69
11099;BME280;12223;42.650;23.364;2023-11-25T00:08:48;92508.09;;;16.55;59.68
11099;BME280;12223;42.650;23.364;2023-11-25T00:11:14;92516.69;;;16.52;60.84
11099;BME280;12223;42.650;23.364;2023-11-25T00:13:41;92491.31;;;15.98;60.55
11099;BME280;12223;42.650;23.364;2023-11-25T00:16:37;92467.09;;;18.77;100.00
11099;BME280;12223;42.650;23.364;2023-11-25T00:19:04;92469.81;;;20.57;100.00
11099;BME280;12223;42.650;23.364;2023-11-25T00:21:31;92469.94;;;21.96;100.00
11099;BME280;12223;42.650;23.364;2023-11-25T00:23:58;92489.38;;;23.19;100.00
11099;BME280;12223;42.650;23.364;2023-11-25T00:26:24;92471.94;;;24.13;100.00
11099;BME280;12223;42.650;23.364;2023-11-25T00:28:51;92478.72;;;24.98;100.00
11099;BME280;12223;42.650;23.364;2023-11-25T00:31:18;92485.84;;;25.66;98.36
11099;BME280;12223;42.650;23.364;2023-11-25T00:33:46;92474.84;;;26.22;89.79
11099;BME280;12223;42.650;23.364;2023-11-25T00:36:13;92460.97;;;26.71;83.36
11099;BME280;12223;42.650;23.364;2023-11-25T00:38:40;92465.91;;;27.06;78.65
11099;BME280;12223;42.650;23.364;2023-11-25T00:41:06;92451.34;;;27.39;74.73
11099;BME280;12223;42.650;23.364;2023-11-25T00:43:34;92459.63;;;27.64;71.97
11099;BME280;12223;42.650;23.364;2023-11-25T00:46:01;92456.63;;;27.86;69.32
11099;BME280;12223;42.650;23.364;2023-11-25T00:48:29;92445.41;;;28.02;67.40
11099;BME280;12223;42.650;23.364;2023-11-25T00:50:58;92432.28;;;28.15;64.99
11099;BME280;12223;42.650;23.364;2023-11-25T00:53:24;92445.09;;;28.28;63.51
11099;BME280;12223;42.650;23.364;2023-11-25T00:55:51;92435.03;;;28.36;62.69
11099;BME280;12223;42.650;23.364;2023-11-25T00:58:18;92437.72;;;28.47;61.78
11099;BME280;12223;42.650;23.364;2023-11-25T01:00:45;92418.75;;;28.50;61.31
11099;BME280;12223;42.650;23.364;2023-11-25T01:03:11;92424.97;;;28.51;60.64
11099;BME280;12223;42.650;23.364;2023-11-25T01:05:38;92424.97;;;28.58;59.72
11099;BME280;12223;42.650;23.364;2023-11-25T01:08:06;92424.16;;;28.61;59.94
11099;BME280;12223;42.650;23.364;2023-11-25T01:10:33;92429.22;;;28.62;59.08
11099;BME280;12223;42.650;23.364;2023-11-25T01:13:00;92431.53;;;28.67;58.94
11099;BME280;12223;42.650;23.364;2023-11-25T01:15:27;92408.63;;;28.65;58.54
11099;BME280;12223;42.650;23.364;2023-11-25T01:17:53;92407.09;;;28.67;57.92
11099;BME280;12223;42.650;23.364;2023-11-25T01:20:20;92405.53;;;28.70;57.52
11099;BME280;12223;42.650;23.364;2023-11-25T01:22:49;92397.78;;;28.68;57.49
11099;BME280;12223;42.650;23.364;2023-11-25T01:25:17;92386.91;;;28.72;57.20
11099;BME280;12223;42.650;23.364;2023-11-25T01:27:43;92371.75;;;28.71;57.25
11099;BME280;12223;42.650;23.364;2023-11-25T01:30:11;92368.28;;;28.67;56.65
11099;BME280;12223;42.650;23.364;2023-11-25T01:32:38;92375.66;;;28.70;55.84
11099;BME280;12223;42.650;23.364;2023-11-25T01:35:05;92387.69;;;28.69;55.44
11099;BME280;12223;42.650;23.364;2023-11-25T01:37:32;92390.41;;;28.69;55.32
11099;BME280;12223;42.650;23.364;2023-11-25T01:39:59;92394.69;;;28.70;55.65
11099;BME280;12223;42.650;23.364;2023-11-25T01:42:29;92384.59;;;28.67;55.86
11099;BME280;12223;42.650;23.364;2023-11-25T01:44:56;92372.56;;;28.64;55.70
11099;BME280;12223;42.650;23.364;2023-11-25T01:47:23;92378.00;;;28.68;55.26
11099;BME280;12223;42.650;23.364;2023-11-25T01:49:51;92379.94;;;28.67;54.98
11099;BME280;12223;42.650;23.364;2023-11-25T01:52:18;92362.09;;;28.66;55.06
11099;BME280;12223;42.650;23.364;2023-11-25T01:54:45;92357.81;;;28.65;54.88
11099;BME280;12223;42.650;23.364;2023-11-25T01:57:12;92361.31;;;28.62;54.64
11099;BME280;12223;42.650;23.364;2023-11-25T01:59:43;92367.94;;;28.58;54.85
11099;BME280;12223;42.650;23.364;2023-11-25T02:02:11;92354.72;;;28.60;54.55
11099;BME280;12223;42.650;23.364;2023-11-25T02:04:41;92352.00;;;28.60;54.06
11099;BME280;12223;42.650;23.364;2023-11-25T02:07:10;92349.31;;;28.56;54.00
11099;BME280;12223;42.650;23.364;2023-11-25T02:09:37;92352.78;;;28.60;53.87
11099;BME280;12223;42.650;23.364;2023-11-25T02:12:04;92353.19;;;28.55;54.16
11099;BME280;12223;42.650;23.364;2023-11-25T02:14:31;92360.16;;;28.53;54.42
11099;BME280;12223;42.650;23.364;2023-11-25T02:17:00;92373.38;;;28.51;54.44
11099;BME280;12223;42.650;23.364;2023-11-25T02:19:26;92367.16;;;28.47;54.37
11099;BME280;12223;42.650;23.364;2023-11-25T02:21:54;92359.00;;;28.54;54.08
11099;BME280;12223;42.650;23.364;2023-11-25T02:24:22;92356.28;;;28.54;53.62
11099;BME280;12223;42.650;23.364;2023-11-25T02:26:56;92364.44;;;28.54;53.65
11099;BME280;12223;42.650;23.364;2023-11-25T02:29:24;92362.09;;;28.52;53.93
11099;BME280;12223;42.650;23.364;2023-11-25T02:31:50;92352.81;;;28.50;53.99
11099;BME280;12223;42.650;23.364;2023-11-25T02:34:17;92343.50;;;28.40;53.92
11099;BME280;12223;42.650;23.364;2023-11-25T02:36:46;92351.25;;;28.49;53.47
11099;BME280;12223;42.650;23.364;2023-11-25T02:39:14;92361.34;;;28.52;53.03
11099;BME280;12223;42.650;23.364;2023-11-25T02:41:47;92351.25;;;28.49;52.90
11099;BME280;12223;42.650;23.364;2023-11-25T02:44:14;92346.22;;;28.51;52.86
11099;BME280;12223;42.650;23.364;2023-11-25T02:46:42;92352.81;;;28.50;53.04
11099;BME280;12223;42.650;23.364;2023-11-25T02:49:09;92348.94;;;28.44;53.14
11099;BME280;12223;42.650;23.364;2023-11-25T02:51:36;92344.28;;;28.40;53.71
11099;BME280;12223;42.650;23.364;2023-11-25T02:54:04;92358.25;;;28.43;53.59
11099;BME280;12223;42.650;23.364;2023-11-25T02:56:31;92357.44;;;28.46;52.35
11099;BME280;12223;42.650;23.364;2023-11-25T02:58:59;92356.28;;;28.47;52.23
11099;BME280;12223;42.650;23.364;2023-11-25T03:01:27;92365.59;;;28.46;52.29
11099;BME280;12223;42.650;23.364;2023-11-25T03:03:55;92358.22;;;28.46;52.33
11099;BME280;12223;42.650;23.364;2023-11-25T03:06:26;92353.19;;;28.45;52.48
11099;BME280;12223;42.650;23.364;2023-11-25T03:08:56;92353.59;;;28.43;52.93
11099;BME280;12223;42.650;23.364;2023-11-25T03:11:23;92342.34;;;28.27;52.83
11099;BME280;12223;42.650;23.364;2023-11-25T03:13:51;92357.47;;;28.42;52.43
11099;BME280;12223;42.650;23.364;2023-11-25T03:16:19;92350.88;;;28.43;52.17
11099;BME280;12223;42.650;23.364;2023-11-25T03:18:50;92355.53;;;28.43;52.32
11099;BME280;12223;42.650;23.364;2023-11-25T03:21:17;92341.56;;;28.33;51.87
11099;BME280;12223;42.650;23.364;2023-11-25T03:23:45;92345.03;;;28.41;51.96
11099;BME280;12223;42.650;23.364;2023-11-25T03:26:12;92341.19;;;28.38;52.29
11099;BME280;12223;42.650;23.364;2023-11-25T03:28:39;92337.28;;;28.36;52.53
11099;BME280;12223;42.650;23.364;2023-11-25T03:31:06;92342.72;;;28.36;52.37
11099;BME280;12223;42.650;23.364;2023-11-25T03:33:35;92330.31;;;28.28;51.85
11099;BME280;12223;42.650;23.364;2023-11-25T03:36:02;92346.19;;;28.40;51.76
11099;BME280;12223;42.650;23.364;2023-11-25T03:38:29;92343.91;;;28.38;51.16
11099;BME280;12223;42.650;23.364;2023-11-25T03:40:56;92353.56;;;28.39;51.45
11099;BME280;12223;42.650;23.364;2023-11-25T03:43:23;92347.00;;;28.37;51.81
11099;BME280;12223;42.650;23.364;2023-11-25T03:45:50;92344.69;;;28.32;51.65
11099;BME280;12223;42.650;23.364;2023-11-25T03:48:17;92333.03;;;28.31;52.34
11099;BME280;12223;42.650;23.364;2023-11-25T03:50:46;92342.34;;;28.30;52.05
11099;BME280;12223;42.650;23.364;2023-11-25T03:53:13;92337.31;;;28.32;51.59
11099;BME280;12223;42.650;23.364;2023-11-25T03:55:40;92334.97;;;28.34;51.01
11099;BME280;12223;42.650;23.364;2023-11-25T03:58:06;92337.31;;;28.32;50.89
11099;BME280;12223;42.650;23.364;2023-11-25T04:00:33;92334.97;;;28.34;51.21
11099;BME280;12223;42.650;23.364;2023-11-25T04:03:00;92337.69;;;28.34;51.40
11099;BME280;12223;42.650;23.364;2023-11-25T04:05:27;92340.41;;;28.31;51.25
11099;BME280;12223;42.650;23.364;2023-11-25T04:07:55;92331.09;;;28.28;51.58
11099;BME280;12223;42.650;23.364;2023-11-25T04:10:22;92325.31;;;28.26;51.93
11099;BME280;12223;42.650;23.364;2023-11-25T04:12:49;92324.09;;;28.27;51.45
11099;BME280;12223;42.650;23.364;2023-11-25T04:15:18;92324.91;;;28.31;50.84
11099;BME280;12223;42.650;23.364;2023-11-25T04:17:46;92326.84;;;28.31;50.60
11099;BME280;12223;42.650;23.364;2023-11-25T04:20:12;92328.00;;;28.30;50.79
11099;BME280;12223;42.650;23.364;2023-11-25T04:22:41;92318.31;;;28.32;50.56
11099;BME280;12223;42.650;23.364;2023-11-25T04:25:09;92311.72;;;28.19;50.73
11099;BME280;12223;42.650;23.364;2023-11-25T04:27:38;92328.75;;;28.27;50.90
11099;BME280;12223;42.650;23.364;2023-11-25T04:30:06;92325.69;;;28.25;51.00
11099;BME280;12223;42.650;23.364;2023-11-25T04:32:34;92329.53;;;28.27;50.67
11099;BME280;12223;42.650;23.364;2023-11-25T04:35:00;92336.91;;;28.30;50.20
11099;BME280;12223;42.650;23.364;2023-11-25T04:37:28;92336.53;;;28.28;50.10
11099;BME280;12223;42.650;23.364;2023-11-25T04:39:55;92334.59;;;28.29;50.36
11099;BME280;12223;42.650;23.364;2023-11-25T04:42:23;92348.16;;;28.29;50.12
11099;BME280;12223;42.650;23.364;2023-11-25T04:44:50;92347.00;;;28.26;50.45
11099;BME280;12223;42.650;23.364;2023-11-25T04:47:16;92342.34;;;28.23;50.50
11099;BME280;12223;42.650;23.364;2023-11-25T04:49:43;92345.44;;;28.22;50.73
11099;BME280;12223;42.650;23.364;2023-11-25T04:52:10;92326.81;;;28.20;50.83
11099;BME280;12223;42.650;23.364;2023-11-25T04:54:39;92332.25;;;28.24;50.38
11099;BME280;12223;42.650;23.364;2023-11-25T04:57:07;92334.97;;;28.27;49.90
11099;BME280;12223;42.650;23.364;2023-11-25T04:59:36;92325.31;;;28.26;49.51
11099;BME280;12223;42.650;23.364;2023-11-25T05:02:02;92325.66;;;28.28;49.56
11099;BME280;12223;42.650;23.364;2023-11-25T05:04:32;92334.97;;;28.27;49.63
11099;BME280;12223;42.650;23.364;2023-11-25T05:06:59;92341.19;;;28.24;50.06
11099;BME280;12223;42.650;23.364;2023-11-25T05:09:25;92354.34;;;28.22;50.03
11099;BME280;12223;42.650;23.364;2023-11-25T05:11:52;92358.22;;;28.21;50.41
11099;BME280;12223;42.650;23.364;2023-11-25T05:14:19;92360.94;;;28.21;50.29
11099;BME280;12223;42.650;23.364;2023-11-25T05:16:47;92353.59;;;28.22;49.93
11099;BME280;12223;42.650;23.364;2023-11-25T05:19:14;92343.91;;;28.24;49.00
11099;BME280;12223;42.650;23.364;2023-11-25T05:21:41;92356.69;;;28.24;49.02
11099;BME280;12223;42.650;23.364;2023-11-25T05:24:08;92359.03;;;28.25;48.93
11099;BME280;12223;42.650;23.364;2023-11-25T05:26:35;92350.88;;;28.25;49.16
11099;BME280;12223;42.650;23.364;2023-11-25T05:29:02;92361.72;;;28.22;49.42
11099;BME280;12223;42.650;23.364;2023-11-25T05:31:29;92370.25;;;28.17;49.91
11099;BME280;12223;42.650;23.364;2023-11-25T05:34:00;92386.53;;;28.17;49.68
11099;BME280;12223;42.650;23.364;2023-11-25T05:36:29;92379.97;;;28.18;50.04
11099;BME280;12223;42.650;23.364;2023-11-25T05:38:57;92392.75;;;28.17;49.82
11099;BME280;12223;42.650;23.364;2023-11-25T05:41:25;92397.38;;;28.20;48.99
11099;BME280;12223;42.650;23.364;2023-11-25T05:43:53;92400.50;;;28.22;48.89
11099;BME280;12223;42.650;23.364;2023-11-25T05:46:20;92401.66;;;28.21;49.42
11099;BME280;12223;42.650;23.364;2023-11-25T05:48:47;92402.84;;;28.24;49.08
11099;BME280;12223;42.650;23.364;2023-11-25T05:51:16;92416.38;;;28.20;49.33
11099;BME280;12223;42.650;23.364;2023-11-25T05:53:43;92411.75;;;28.17;49.44
11099;BME280;12223;42.650;23.364;2023-11-25T05:56:10;92424.50;;;28.13;49.77
11099;BME280;12223;42.650;23.364;2023-11-25T05:58:37;92446.22;;;28.13;49.91
11099;BME280;12223;42.650;23.364;2023-11-25T06:01:04;92448.53;;;28.11;50.16
11099;BME280;12223;42.650;23.364;2023-11-25T06:03:31;92457.06;;;28.13;49.55
11099;BME280;12223;42.650;23.364;2023-11-25T06:05:57;92452.06;;;28.15;49.54
11099;BME280;12223;42.650;23.364;2023-11-25T06:08:25;92458.25;;;28.16;49.15
11099;BME280;12223;42.650;23.364;2023-11-25T06:10:52;92474.16;;;28.14;49.05
11099;BME280;12223;42.650;23.364;2023-11-25T06:13:19;92483.44;;;28.13;48.81
11099;BME280;12223;42.650;23.364;2023-11-25T06:15:46;92483.03;;;28.11;49.11
11099;BME280;12223;42.650;23.364;2023-11-25T06:18:13;92484.97;;;28.10;49.04
11099;BME280;12223;42.650;23.364;2023-11-25T06:20:42;92483.81;;;28.11;49.46
11099;BME280;12223;42.650;23.364;2023-11-25T06:23:10;92494.66;;;28.11;49.53
11099;BME280;12223;42.650;23.364;2023-11-25T06:25:38;92486.91;;;28.10;49.23
11099;BME280;12223;42.650;23.364;2023-11-25T06:28:06;92500.84;;;28.08;48.74
11099;BME280;12223;42.650;23.364;2023-11-25T06:30:33;92512.09;;;28.10;48.01
11099;BME280;12223;42.650;23.364;2023-11-25T06:32:59;92505.53;;;28.11;48.10
11099;BME280;12223;42.650;23.364;2023-11-25T06:35:26;92511.72;;;28.12;47.50
11099;BME280;12223;42.650;23.364;2023-11-25T06:37:54;92504.34;;;28.09;47.76
11099;BME280;12223;42.650;23.364;2023-11-25T06:40:21;92510.91;;;28.08;47.62
11099;BME280;12223;42.650;23.364;2023-11-25T06:42:49;92516.72;;;28.02;48.25
11099;BME280;12223;42.650;23.364;2023-11-25T06:45:15;92518.28;;;28.00;48.30
11099;BME280;12223;42.650;23.364;2023-11-25T06:47:42;92533.38;;;27.97;48.47
11099;BME280;12223;42.650;23.364;2023-11-25T06:50:09;92526.78;;;27.95;48.62
11099;BME280;12223;42.650;23.364;2023-11-25T06:52:37;92517.00;;;27.76;48.72
11099;BME280;12223;42.650;23.364;2023-11-25T06:55:04;92534.53;;;27.96;48.89
11099;BME280;12223;42.650;23.364;2023-11-25T06:57:31;92519.44;;;27.99;48.16
11099;BME280;12223;42.650;23.364;2023-11-25T06:59:59;92523.31;;;28.01;48.02
11099;BME280;12223;42.650;23.364;2023-11-25T07:02:26;92517.13;;;28.01;47.75
11099;BME280;12223;42.650;23.364;2023-11-25T07:04:53;92540.38;;;28.02;47.83
11099;BME280;12223;42.650;23.364;2023-11-25T07:07:19;92545.78;;;28.02;47.63
11099;BME280;12223;42.650;23.364;2023-11-25T07:09:47;92540.38;;;27.98;47.80
11099;BME280;12223;42.650;23.364;2023-11-25T07:12:14;92541.91;;;27.96;48.06
11099;BME280;12223;42.650;23.364;2023-11-25T07:14:41;92534.16;;;27.94;48.31
11099;BME280;12223;42.650;23.364;2023-11-25T07:17:09;92525.59;;;27.82;48.17
11099;BME280;12223;42.650;23.364;2023-11-25T07:19:38;92530.25;;;27.92;48.75
11099;BME280;12223;42.650;23.364;2023-11-25T07:22:06;92534.91;;;27.95;48.68
11099;BME280;12223;42.650;23.364;2023-11-25T07:24:34;92512.06;;;27.96;48.66
11099;BME280;12223;42.650;23.364;2023-11-25T07:27:00;92509.38;;;27.99;48.39
11099;BME280;12223;42.650;23.364;2023-11-25T07:29:30;92517.50;;;27.99;48.30
11099;BME280;12223;42.650;23.364;2023-11-25T07:31:57;92499.28;;;28.00;48.49
11099;BME280;12223;42.650;23.364;2023-11-25T07:34:27;92507.44;;;28.00;48.54
11099;BME280;12223;42.650;23.364;2023-11-25T07:36:56;92514.00;;;27.99;48.63
11099;BME280;12223;42.650;23.364;2023-11-25T07:39:23;92514.75;;;27.96;48.88
11099;BME280;12223;42.650;23.364;2023-11-25T07:41:55;92508.19;;;27.93;49.27
11099;BME280;12223;42.650;23.364;2023-11-25T07:44:23;92508.97;;;27.94;49.53
11099;BME280;12223;42.650;23.364;2023-11-25T07:46:52;92504.31;;;27.98;49.38
11099;BME280;12223;42.650;23.364;2023-11-25T07:49:19;92506.25;;;27.97;49.75
11099;BME280;12223;42.650;23.364;2023-11-25T07:51:47;92495.38;;;27.90;49.43
11099;BME280;12223;42.650;23.364;2023-11-25T07:54:15;92499.66;;;28.02;49.42
11099;BME280;12223;42.650;23.364;2023-11-25T07:56:41;92500.44;;;28.02;49.17
11099;BME280;12223;42.650;23.364;2023-11-25T07:59:08;92500.06;;;28.04;49.21
11099;BME280;12223;42.650;23.364;2023-11-25T08:01:35;92501.59;;;28.01;49.74
11099;BME280;12223;42.650;23.364;2023-11-25T08:04:03;92498.88;;;28.01;49.72
11099;BME280;12223;42.650;23.364;2023-11-25T08:06:30;92492.31;;;28.02;49.78
11099;BME280;12223;42.650;23.364;2023-11-25T08:08:58;92485.72;;;28.00;49.89
11099;BME280;12223;42.650;23.364;2023-11-25T08:11:26;92488.44;;;28.00;50.44
11099;BME280;12223;42.650;23.364;2023-11-25T08:13:53;92495.41;;;28.01;50.56
11099;BME280;12223;42.650;23.364;2023-11-25T08:16:20;92490.00;;;28.08;50.28
11099;BME280;12223;42.650;23.364;2023-11-25T08:18:47;92495.47;;;28.15;50.31
11099;BME280;12223;42.650;23.364;2023-11-25T08:21:14;92492.38;;;28.17;50.01
11099;BME280;12223;42.650;23.364;2023-11-25T08:23:41;92502.47;;;28.20;49.96
11099;BME280;12223;42.650;23.364;2023-11-25T08:26:18;92501.69;;;28.19;49.83
11099;BME280;12223;42.650;23.364;2023-11-25T08:28:45;92499.00;;;28.19;49.64
11099;BME280;12223;42.650;23.364;2023-11-25T08:31:12;92494.72;;;28.18;49.67
11099;BME280;12223;42.650;23.364;2023-11-25T08:33:39;92493.16;;;28.14;49.66
11099;BME280;12223;42.650;23.364;2023-11-25T08:36:09;92496.63;;;28.14;50.16
11099;BME280;12223;42.650;23.364;2023-11-25T08:38:36;92491.94;;;28.11;50.04
11099;BME280;12223;42.650;23.364;2023-11-25T08:41:03;92507.06;;;28.12;50.54
11099;BME280;12223;42.650;23.364;2023-11-25T08:43:33;92505.53;;;28.15;50.59
11099;BME280;12223;42.650;23.364;2023-11-25T08:46:00;92508.66;;;28.17;50.58
11099;BME280;12223;42.650;23.364;2023-11-25T08:48:27;92510.63;;;28.20;50.83
11099;BME280;12223;42.650;23.364;2023-11-25T08:50:55;92497.00;;;28.13;50.47
11099;BME280;12223;42.650;23.364;2023-11-25T08:53:22;92502.84;;;28.18;50.22
11099;BME280;12223;42.650;23.364;2023-11-25T08:55:49;92498.19;;;28.15;50.51
11099;BME280;12223;42.650;23.364;2023-11-25T08:58:16;92498.94;;;28.12;50.47
11099;BME280;12223;42.650;23.364;2023-11-25T09:00:44;92495.44;;;28.12;50.21
11099;BME280;12223;42.650;23.364;2023-11-25T09:03:11;92503.97;;;28.10;50.42
11099;BME280;12223;42.650;23.364;2023-11-25T09:05:40;92493.09;;;28.03;50.32
11099;BME280;12223;42.650;23.364;2023-11-25T09:08:06;92491.19;;;25.95;24.87
11099;BME280;12223;42.650;23.364;2023-11-25T09:10:34;92498.25;;;16.73;34.78
11099;BME280;12223;42.650;23.364;2023-11-25T09:13:02;92485.44;;;14.67;39.43
11099;BME280;12223;42.650;23.364;2023-11-25T09:15:28;92486.25;;;13.31;42.38
11099;BME280;12223;42.650;23.364;2023-11-25T09:17:57;92489.56;;;11.92;46.12
11099;BME280;12223;42.650;23.364;2023-11-25T09:20:23;92499.22;;;10.96;48.71
11099;BME280;12223;42.650;23.364;2023-11-25T09:22:51;92503.69;;;10.13;51.56
11099;BME280;12223;42.650;23.364;2023-11-25T09:25:18;92497.41;;;9.29;55.72
11099;BME280;12223;42.650;23.364;2023-11-25T09:27:46;92501.94;;;8.78;59.64
11099;BME280;12223;42.650;23.364;2023-11-25T09:30:14;92505.34;;;7.71;64.81
11099;BME280;12223;42.650;23.364;2023-11-25T09:32:43;92498.75;;;7.63;72.17
11099;BME280;12223;42.650;23.364;2023-11-25T09:35:13;92497.53;;;7.28;76.97
11099;BME280;12223;42.650;23.364;2023-11-25T09:37:41;92495.75;;;6.60;82.30
11099;BME280;12223;42.650;23.364;2023-11-25T09:40:09;92491.06;;;6.99;86.18
11099;BME280;12223;42.650;23.364;2023-11-25T09:42:40;92473.97;;;6.55;92.10
11099;BME280;12223;42.650;23.364;2023-11-25T09:45:08;92475.31;;;6.57;94.64
11099;BME280;12223;42.650;23.364;2023-11-25T09:47:36;92466.09;;;6.55;95.93
11099;BME280;12223;42.650;23.364;2023-11-25T09:50:04;92465.66;;;6.68;98.34
11099;BME280;12223;42.650;23.364;2023-11-25T09:52:36;92461.72;;;7.07;96.64
11099;BME280;12223;42.650;23.364;2023-11-25T09:55:07;92464.72;;;6.47;99.44
11099;BME280;12223;42.650;23.364;2023-11-25T09:57:35;92468.50;;;6.98;97.86
11099;BME280;12223;42.650;23.364;2023-11-25T10:00:03;92458.91;;;6.77;96.77
11099;BME280;12223;42.650;23.364;2023-11-25T10:02:31;92452.72;;;6.51;100.00
11099;BME280;12223;42.650;23.364;2023-11-25T10:04:59;92456.03;;;6.78;100.00
11099;BME280;12223;42.650;23.364;2023-11-25T10:07:30;92451.19;;;7.02;100.00
11099;BME280;12223;42.650;23.364;2023-11-25T10:09:58;92444.91;;;7.03;100.00
11099;BME280;12223;42.650;23.364;2023-11-25T10:12:25;92443.78;;;6.89;100.00
11099;BME280;12223;42.650;23.364;2023-11-25T10:14:51;92441.25;;;7.09;100.00
11099;BME280;12223;42.650;23.364;2023-11-25T10:17:19;92436.97;;;7.45;96.27
11099;BME280;12223;42.650;23.364;2023-11-25T10:19:48;92431.31;;;7.11;98.59
11099;BME280;12223;42.650;23.364;2023-11-25T10:22:15;92433.34;;;7.66;94.71
11099;BME280;12223;42.650;23.364;2023-11-25T10:24:44;92432.13;;;7.22;99.44
11099;BME280;12223;42.650;23.364;2023-11-25T10:27:14;92422.91;;;7.87;96.14
11099;BME280;12223;42.650;23.364;2023-11-25T10:29:42;92424.53;;;8.13;92.24
11099;BME280;12223;42.650;23.364;2023-11-25T10:32:09;92425.28;;;7.88;89.83
11099;BME280;12223;42.650;23.364;2023-11-25T10:34:36;92430.41;;;7.48;94.24
11099;BME280;12223;42.650;23.364;2023-11-25T10:37:03;92425.56;;;8.02;92.90
11099;BME280;12223;42.650;23.364;2023-11-25T10:39:34;92427.97;;;7.26;96.35
11099;BME280;12223;42.650;23.364;2023-11-25T10:42:02;92418.78;;;6.76;100.00
11099;BME280;12223;42.650;23.364;2023-11-25T10:44:34;92417.00;;;6.87;100.00
11099;BME280;12223;42.650;23.364;2023-11-25T10:47:01;92412.94;;;6.32;100.00
11099;BME280;12223;42.650;23.364;2023-11-25T10:49:31;92403.03;;;7.28;100.00
11099;BME280;12223;42.650;23.364;2023-11-25T10:52:01;92391.72;;;7.28;99.51
11099;BME280;12223;42.650;23.364;2023-11-25T10:54:29;92393.22;;;7.86;100.00
11099;BME280;12223;42.650;23.364;2023-11-25T10:56:59;92378.78;;;8.29;94.78
11099;BME280;12223;42.650;23.364;2023-11-25T10:59:33;92364.88;;;8.49;89.31
11099;BME280;12223;42.650;23.364;2023-11-25T11:02:11;92357.53;;;8.46;87.93
11099;BME280;12223;42.650;23.364;2023-11-25T11:04:45;92355.66;;;8.41;87.47
11099;BME280;12223;42.650;23.364;2023-11-25T11:07:15;92353.81;;;8.42;89.45
11099;BME280;12223;42.650;23.364;2023-11-25T11:09:45;92350.63;;;7.74;96.48
11099;BME280;12223;42.650;23.364;2023-11-25T11:12:19;92347.25;;;7.89;93.89
11099;BME280;12223;42.650;23.364;2023-11-25T11:14:56;92331.47;;;8.14;91.05
11099;BME280;12223;42.650;23.364;2023-11-25T11:17:31;92323.06;;;8.27;89.99
11099;BME280;12223;42.650;23.364;2023-11-25T11:20:05;92327.50;;;7.66;96.25
11099;BME280;12223;42.650;23.364;2023-11-25T11:22:38;92323.06;;;8.17;92.18
11099;BME280;12223;42.650;23.364;2023-11-25T11:25:11;92319.63;;;8.42;90.58
11099;BME280;12223;42.650;23.364;2023-11-25T11:27:46;92311.44;;;8.64;90.11
11099;BME280;12223;42.650;23.364;2023-11-25T11:30:24;92307.81;;;8.44;88.90
11099;BME280;12223;42.650;23.364;2023-11-25T11:32:55;92298.09;;;7.69;92.10
11099;BME280;12223;42.650;23.364;2023-11-25T11:35:32;92290.97;;;7.54;98.91
11099;BME280;12223;42.650;23.364;2023-11-25T11:38:01;92283.56;;;7.11;96.48
11099;BME280;12223;42.650;23.364;2023-11-25T11:40:27;92289.16;;;7.40;100.00
11099;BME280;12223;42.650;23.364;2023-11-25T11:42:54;92301.25;;;7.91;95.45
11099;BME280;12223;42.650;23.364;2023-11-25T11:45:24;92308.34;;;7.86;94.55
11099;BME280;12223;42.650;23.364;2023-11-25T11:47:52;92316.75;;;7.83;93.33
11099;BME280;12223;42.650;23.364;2023-11-25T11:50:20;92314.16;;;7.78;93.79
11099;BME280;12223;42.650;23.364;2023-11-25T11:53:11;92312.56;;;7.77;92.58
11099;BME280;12223;42.650;23.364;2023-11-25T11:55:40;92313.88;;;8.04;93.02
11099;BME280;12223;42.650;23.364;2023-11-25T11:58:08;92301.78;;;8.34;91.50
11099;BME280;12223;42.650;23.364;2023-11-25T12:00:41;92299.69;;;8.05;92.18
11099;BME280;12223;42.650;23.364;2023-11-25T12:03:09;92293.63;;;7.80;94.58
11099;BME280;12223;42.650;23.364;2023-11-25T12:05:36;92285.47;;;7.56;93.40
11099;BME280;12223;42.650;23.364;2023-11-25T12:08:04;92292.91;;;6.29;100.00
11099;BME280;12223;42.650;23.364;2023-11-25T12:10:32;92287.50;;;7.13;100.00
11099;BME280;12223;42.650;23.364;2023-11-25T12:12:59;92275.22;;;7.49;98.21
11099;BME280;12223;42.650;23.364;2023-11-25T12:15:27;92286.28;;;7.51;96.18
11099;BME280;12223;42.650;23.364;2023-11-25T12:17:57;92265.81;;;7.58;96.79
11099;BME280;12223;42.650;23.364;2023-11-25T12:20:25;92273.09;;;7.36;97.35
11099;BME280;12223;42.650;23.364;2023-11-25T12:22:53;92288.09;;;7.51;98.56
11099;BME280;12223;42.650;23.364;2023-11-25T12:25:21;92291.50;;;7.46;96.43
11099;BME280;12223;42.650;23.364;2023-11-25T12:27:53;92280.13;;;7.10;97.40
11099;BME280;12223;42.650;23.364;2023-11-25T12:30:21;92260.53;;;7.33;99.17
11099;BME280;12223;42.650;23.364;2023-11-25T12:32:48;92262.59;;;7.46;97.75
11099;BME280;12223;42.650;23.364;2023-11-25T12:35:16;92255.81;;;7.55;95.91
11099;BME280;12223;42.650;23.364;2023-11-25T12:37:44;92262.31;;;7.22;99.85
11099;BME280;12223;42.650;23.364;2023-11-25T12:40:16;92251.56;;;7.34;99.22
11099;BME280;12223;42.650;23.364;2023-11-25T12:42:44;92220.59;;;7.26;98.14
11099;BME280;12223;42.650;23.364;2023-11-25T12:45:29;92230.84;;;7.43;96.78
11099;BME280;12223;42.650;23.364;2023-11-25T12:47:56;92211.69;;;7.67;94.59
11099;BME280;12223;42.650;23.364;2023-11-25T12:50:26;92206.97;;;7.70;93.66
11099;BME280;12223;42.650;23.364;2023-11-25T12:53:04;92212.19;;;7.80;92.60
11099;BME280;12223;42.650;23.364;2023-11-25T12:55:35;92214.56;;;7.76;92.02
11099;BME280;12223;42.650;23.364;2023-11-25T12:58:07;92213.75;;;8.01;91.93